sensor_id;sensor_type;location;lat;lon;timestamp;P1;durP1;ratioP1;P2;durP2;ratioP2
7495;SDS011;3789;47.064;15.482;2024-03-07T00:00:10;10.20;;;6.50;;
7495;SDS011;3789;47.064;15.482;2024-03-07T00:02:45;8.83;;;6.50;;
7495;SDS011;3789;47.064;15.482;2024-03-07T00:05:16;9.40;;;6.43;;
7495;SDS011;3789;47.064;15.482;2024-03-07T00:07:47;9.27;;;5.73;;
7495;SDS011;3789;47.064;15.482;2024-03-07T00:10:15;10.70;;;6.30;;
7495;SDS011;3789;47.064;15.482;2024-03-07T00:12:43;10.23;;;6.40;;
7495;SDS011;3789;47.064;15.482;2024-03-07T00:15:12;11.00;;;6.07;;
7495;SDS011;3789;47.064;15.482;2024-03-07T00:17:41;11.53;;;6.50;;
7495;SDS011;3789;47.064;15.482;2024-03-07T00:20:10;10.33;;;6.43;;
7495;SDS011;3789;47.064;15.482;2024-03-07T00:22:42;10.37;;;6.37;;
7495;SDS011;3789;47.064;15.482;2024-03-07T00:25:10;11.77;;;6.80;;
7495;SDS011;3789;47.064;15.482;2024-03-07T00:27:39;13.10;;;6.83;;
7495;SDS011;3789;47.064;15.482;2024-03-07T00:30:06;12.40;;;6.27;;
7495;SDS011;3789;47.064;15.482;2024-03-07T00:32:40;11.27;;;6.30;;
7495;SDS011;3789;47.064;15.482;2024-03-07T00:35:08;12.03;;;6.93;;
7495;SDS011;3789;47.064;15.482;2024-03-07T00:37:35;10.47;;;6.13;;
7495;SDS011;3789;47.064;15.482;2024-03-07T00:40:03;9.20;;;5.80;;
7495;SDS011;3789;47.064;15.482;2024-03-07T00:42:31;11.47;;;7.13;;
7495;SDS011;3789;47.064;15.482;2024-03-07T00:44:59;10.07;;;6.30;;
7495;SDS011;3789;47.064;15.482;2024-03-07T00:47:26;9.00;;;6.37;;
7495;SDS011;3789;47.064;15.482;2024-03-07T00:49:55;10.93;;;6.70;;
7495;SDS011;3789;47.064;15.482;2024-03-07T00:52:22;10.80;;;6.67;;
7495;SDS011;3789;47.064;15.482;2024-03-07T00:54:50;10.27;;;6.57;;
7495;SDS011;3789;47.064;15.482;2024-03-07T00:57:18;11.23;;;6.73;;
7495;SDS011;3789;47.064;15.482;2024-03-07T00:59:46;14.40;;;7.43;;
7495;SDS011;3789;47.064;15.482;2024-03-07T01:02:15;10.00;;;7.23;;
7495;SDS011;3789;47.064;15.482;2024-03-07T01:04:44;12.23;;;7.00;;
7495;SDS011;3789;47.064;15.482;2024-03-07T01:07:12;8.60;;;6.47;;
7495;SDS011;3789;47.064;15.482;2024-03-07T01:09:39;10.47;;;6.70;;
7495;SDS011;3789;47.064;15.482;2024-03-07T01:12:06;12.13;;;7.07;;
7495;SDS011;3789;47.064;15.482;2024-03-07T01:14:37;13.07;;;7.87;;
7495;SDS011;3789;47.064;15.482;2024-03-07T01:17:04;11.67;;;6.73;;
7495;SDS011;3789;47.064;15.482;2024-03-07T01:19:35;12.27;;;7.53;;
7495;SDS011;3789;47.064;15.482;2024-03-07T01:22:02;10.37;;;7.07;;
7495;SDS011;3789;47.064;15.482;2024-03-07T01:24:29;11.13;;;7.13;;
7495;SDS011;3789;47.064;15.482;2024-03-07T01:26:57;11.13;;;6.93;;
7495;SDS011;3789;47.064;15.482;2024-03-07T01:29:26;12.53;;;6.70;;
7495;SDS011;3789;47.064;15.482;2024-03-07T01:31:54;11.10;;;7.13;;
7495;SDS011;3789;47.064;15.482;2024-03-07T01:34:22;12.63;;;7.43;;
7495;SDS011;3789;47.064;15.482;2024-03-07T01:36:49;10.23;;;7.40;;
7495;SDS011;3789;47.064;15.482;2024-03-07T01:39:17;11.73;;;6.87;;
7495;SDS011;3789;47.064;15.482;2024-03-07T01:41:44;11.80;;;6.73;;
7495;SDS011;3789;47.064;15.482;2024-03-07T01:44:11;10.03;;;6.80;;
7495;SDS011;3789;47.064;15.482;2024-03-07T01:46:38;10.67;;;7.63;;
7495;SDS011;3789;47.064;15.482;2024-03-07T01:49:08;12.43;;;7.40;;
7495;SDS011;3789;47.064;15.482;2024-03-07T01:51:36;13.03;;;7.23;;
7495;SDS011;3789;47.064;15.482;2024-03-07T01:54:06;11.83;;;6.93;;
7495;SDS011;3789;47.064;15.482;2024-03-07T01:56:36;13.17;;;6.60;;
7495;SDS011;3789;47.064;15.482;2024-03-07T01:59:05;9.33;;;6.10;;
7495;SDS011;3789;47.064;15.482;2024-03-07T02:01:35;10.83;;;6.93;;
7495;SDS011;3789;47.064;15.482;2024-03-07T02:04:04;10.57;;;6.53;;
7495;SDS011;3789;47.064;15.482;2024-03-07T02:06:32;9.43;;;6.40;;
7495;SDS011;3789;47.064;15.482;2024-03-07T02:09:00;10.60;;;6.03;;
7495;SDS011;3789;47.064;15.482;2024-03-07T02:11:29;10.10;;;6.20;;
7495;SDS011;3789;47.064;15.482;2024-03-07T02:13:57;9.63;;;6.37;;
7495;SDS011;3789;47.064;15.482;2024-03-07T02:16:24;10.30;;;6.77;;
7495;SDS011;3789;47.064;15.482;2024-03-07T02:18:52;10.90;;;6.77;;
7495;SDS011;3789;47.064;15.482;2024-03-07T02:21:21;9.93;;;6.57;;
7495;SDS011;3789;47.064;15.482;2024-03-07T02:23:49;12.60;;;7.10;;
7495;SDS011;3789;47.064;15.482;2024-03-07T02:26:16;12.57;;;6.23;;
7495;SDS011;3789;47.064;15.482;2024-03-07T02:28:45;9.30;;;6.10;;
7495;SDS011;3789;47.064;15.482;2024-03-07T02:31:12;11.03;;;7.27;;
7495;SDS011;3789;47.064;15.482;2024-03-07T02:33:39;11.10;;;7.33;;
7495;SDS011;3789;47.064;15.482;2024-03-07T02:36:08;12.80;;;6.93;;
7495;SDS011;3789;47.064;15.482;2024-03-07T02:38:35;10.67;;;6.80;;
7495;SDS011;3789;47.064;15.482;2024-03-07T02:41:03;9.63;;;6.03;;
7495;SDS011;3789;47.064;15.482;2024-03-07T02:43:30;10.67;;;6.43;;
7495;SDS011;3789;47.064;15.482;2024-03-07T02:45:59;11.63;;;6.40;;
7495;SDS011;3789;47.064;15.482;2024-03-07T02:48:27;8.90;;;6.20;;
7495;SDS011;3789;47.064;15.482;2024-03-07T02:50:55;9.27;;;6.17;;
7495;SDS011;3789;47.064;15.482;2024-03-07T02:53:23;9.80;;;6.50;;
7495;SDS011;3789;47.064;15.482;2024-03-07T02:55:50;9.20;;;6.03;;
7495;SDS011;3789;47.064;15.482;2024-03-07T02:58:17;9.23;;;5.90;;
7495;SDS011;3789;47.064;15.482;2024-03-07T03:00:44;8.50;;;6.13;;
7495;SDS011;3789;47.064;15.482;2024-03-07T03:03:12;8.27;;;5.63;;
7495;SDS011;3789;47.064;15.482;2024-03-07T03:05:39;10.40;;;6.13;;
7495;SDS011;3789;47.064;15.482;2024-03-07T03:08:06;9.67;;;6.43;;
7495;SDS011;3789;47.064;15.482;2024-03-07T03:10:34;10.40;;;6.77;;
7495;SDS011;3789;47.064;15.482;2024-03-07T03:13:02;9.53;;;6.00;;
7495;SDS011;3789;47.064;15.482;2024-03-07T03:15:30;7.50;;;5.47;;
7495;SDS011;3789;47.064;15.482;2024-03-07T03:17:57;10.63;;;6.23;;
7495;SDS011;3789;47.064;15.482;2024-03-07T03:20:30;7.97;;;6.33;;
7495;SDS011;3789;47.064;15.482;2024-03-07T03:23:02;9.63;;;5.83;;
7495;SDS011;3789;47.064;15.482;2024-03-07T03:25:33;9.30;;;6.20;;
7495;SDS011;3789;47.064;15.482;2024-03-07T03:28:01;9.27;;;5.67;;
7495;SDS011;3789;47.064;15.482;2024-03-07T03:30:30;8.80;;;6.23;;
7495;SDS011;3789;47.064;15.482;2024-03-07T03:32:59;9.70;;;6.70;;
7495;SDS011;3789;47.064;15.482;2024-03-07T03:35:27;11.13;;;6.63;;
7495;SDS011;3789;47.064;15.482;2024-03-07T03:37:55;10.60;;;6.47;;
7495;SDS011;3789;47.064;15.482;2024-03-07T03:40:22;10.03;;;6.47;;
7495;SDS011;3789;47.064;15.482;2024-03-07T03:42:49;9.90;;;5.73;;
7495;SDS011;3789;47.064;15.482;2024-03-07T03:45:17;11.17;;;6.40;;
7495;SDS011;3789;47.064;15.482;2024-03-07T03:47:45;9.07;;;6.30;;
7495;SDS011;3789;47.064;15.482;2024-03-07T03:50:13;8.33;;;5.73;;
7495;SDS011;3789;47.064;15.482;2024-03-07T03:52:40;10.17;;;5.80;;
7495;SDS011;3789;47.064;15.482;2024-03-07T03:55:08;9.13;;;5.97;;
7495;SDS011;3789;47.064;15.482;2024-03-07T03:57:37;9.13;;;6.03;;
7495;SDS011;3789;47.064;15.482;2024-03-07T04:00:06;8.80;;;5.30;;
7495;SDS011;3789;47.064;15.482;2024-03-07T04:02:44;8.97;;;5.93;;
7495;SDS011;3789;47.064;15.482;2024-03-07T04:05:17;10.47;;;6.33;;
7495;SDS011;3789;47.064;15.482;2024-03-07T04:07:47;7.00;;;5.67;;
7495;SDS011;3789;47.064;15.482;2024-03-07T04:10:15;10.47;;;6.10;;
7495;SDS011;3789;47.064;15.482;2024-03-07T04:12:45;11.77;;;5.77;;
7495;SDS011;3789;47.064;15.482;2024-03-07T04:15:13;10.33;;;6.13;;
7495;SDS011;3789;47.064;15.482;2024-03-07T04:17:46;8.10;;;6.07;;
7495;SDS011;3789;47.064;15.482;2024-03-07T04:20:15;10.33;;;5.60;;
7495;SDS011;3789;47.064;15.482;2024-03-07T04:22:46;7.93;;;5.03;;
7495;SDS011;3789;47.064;15.482;2024-03-07T04:25:16;8.83;;;5.47;;
7495;SDS011;3789;47.064;15.482;2024-03-07T04:27:44;9.27;;;5.27;;
7495;SDS011;3789;47.064;15.482;2024-03-07T04:30:11;11.50;;;6.27;;
7495;SDS011;3789;47.064;15.482;2024-03-07T04:32:42;9.73;;;5.90;;
7495;SDS011;3789;47.064;15.482;2024-03-07T04:35:09;8.90;;;5.93;;
7495;SDS011;3789;47.064;15.482;2024-03-07T04:37:41;8.73;;;6.00;;
7495;SDS011;3789;47.064;15.482;2024-03-07T04:40:09;8.33;;;5.63;;
7495;SDS011;3789;47.064;15.482;2024-03-07T04:42:45;7.43;;;5.30;;
7495;SDS011;3789;47.064;15.482;2024-03-07T04:45:17;10.60;;;6.17;;
7495;SDS011;3789;47.064;15.482;2024-03-07T04:47:45;6.50;;;5.00;;
7495;SDS011;3789;47.064;15.482;2024-03-07T04:50:14;7.60;;;5.33;;
7495;SDS011;3789;47.064;15.482;2024-03-07T04:52:45;9.40;;;5.93;;
7495;SDS011;3789;47.064;15.482;2024-03-07T04:55:15;11.10;;;6.10;;
7495;SDS011;3789;47.064;15.482;2024-03-07T04:57:43;8.13;;;5.90;;
7495;SDS011;3789;47.064;15.482;2024-03-07T05:00:11;8.93;;;5.83;;
7495;SDS011;3789;47.064;15.482;2024-03-07T05:02:47;10.03;;;6.10;;
7495;SDS011;3789;47.064;15.482;2024-03-07T05:05:18;10.77;;;6.20;;
7495;SDS011;3789;47.064;15.482;2024-03-07T05:07:50;8.20;;;4.90;;
7495;SDS011;3789;47.064;15.482;2024-03-07T05:10:18;8.33;;;5.67;;
7495;SDS011;3789;47.064;15.482;2024-03-07T05:12:47;8.53;;;5.73;;
7495;SDS011;3789;47.064;15.482;2024-03-07T05:15:15;6.37;;;4.83;;
7495;SDS011;3789;47.064;15.482;2024-03-07T05:17:44;9.97;;;5.50;;
7495;SDS011;3789;47.064;15.482;2024-03-07T05:20:12;8.20;;;5.97;;
7495;SDS011;3789;47.064;15.482;2024-03-07T05:22:40;7.63;;;6.00;;
7495;SDS011;3789;47.064;15.482;2024-03-07T05:25:11;8.13;;;5.70;;
7495;SDS011;3789;47.064;15.482;2024-03-07T05:27:38;10.43;;;5.70;;
7495;SDS011;3789;47.064;15.482;2024-03-07T05:30:06;8.70;;;6.17;;
7495;SDS011;3789;47.064;15.482;2024-03-07T05:32:38;10.77;;;6.43;;
7495;SDS011;3789;47.064;15.482;2024-03-07T05:35:07;8.50;;;6.10;;
7495;SDS011;3789;47.064;15.482;2024-03-07T05:37:35;10.67;;;5.70;;
7495;SDS011;3789;47.064;15.482;2024-03-07T05:40:02;9.60;;;6.00;;
7495;SDS011;3789;47.064;15.482;2024-03-07T05:42:30;8.70;;;6.27;;
7495;SDS011;3789;47.064;15.482;2024-03-07T05:44:58;9.43;;;6.90;;
7495;SDS011;3789;47.064;15.482;2024-03-07T05:47:26;11.73;;;6.60;;
7495;SDS011;3789;47.064;15.482;2024-03-07T05:49:54;8.87;;;6.33;;
7495;SDS011;3789;47.064;15.482;2024-03-07T05:52:21;9.67;;;6.30;;
7495;SDS011;3789;47.064;15.482;2024-03-07T05:54:48;10.67;;;7.00;;
7495;SDS011;3789;47.064;15.482;2024-03-07T05:57:16;10.50;;;7.00;;
7495;SDS011;3789;47.064;15.482;2024-03-07T05:59:44;9.97;;;6.67;;
7495;SDS011;3789;47.064;15.482;2024-03-07T06:02:13;9.33;;;6.43;;
7495;SDS011;3789;47.064;15.482;2024-03-07T06:04:43;10.53;;;6.83;;
7495;SDS011;3789;47.064;15.482;2024-03-07T06:07:10;11.37;;;6.90;;
7495;SDS011;3789;47.064;15.482;2024-03-07T06:09:40;13.33;;;7.43;;
7495;SDS011;3789;47.064;15.482;2024-03-07T06:12:08;13.10;;;7.10;;
7495;SDS011;3789;47.064;15.482;2024-03-07T06:14:48;10.63;;;6.77;;
7495;SDS011;3789;47.064;15.482;2024-03-07T06:17:16;9.93;;;6.60;;
7495;SDS011;3789;47.064;15.482;2024-03-07T06:19:48;10.03;;;6.43;;
7495;SDS011;3789;47.064;15.482;2024-03-07T06:22:15;10.73;;;7.27;;
7495;SDS011;3789;47.064;15.482;2024-03-07T06:24:44;11.53;;;7.40;;
7495;SDS011;3789;47.064;15.482;2024-03-07T06:27:11;8.00;;;6.10;;
7495;SDS011;3789;47.064;15.482;2024-03-07T06:29:54;10.30;;;7.07;;
7495;SDS011;3789;47.064;15.482;2024-03-07T06:32:21;11.57;;;7.17;;
7495;SDS011;3789;47.064;15.482;2024-03-07T06:34:49;8.73;;;6.57;;
7495;SDS011;3789;47.064;15.482;2024-03-07T06:37:17;12.00;;;7.20;;
7495;SDS011;3789;47.064;15.482;2024-03-07T06:39:45;11.43;;;7.27;;
7495;SDS011;3789;47.064;15.482;2024-03-07T06:42:13;10.33;;;6.40;;
7495;SDS011;3789;47.064;15.482;2024-03-07T06:44:42;10.33;;;6.73;;
7495;SDS011;3789;47.064;15.482;2024-03-07T06:47:10;12.53;;;7.27;;
7495;SDS011;3789;47.064;15.482;2024-03-07T06:49:37;11.83;;;7.30;;
7495;SDS011;3789;47.064;15.482;2024-03-07T06:52:06;11.30;;;7.93;;
7495;SDS011;3789;47.064;15.482;2024-03-07T06:54:34;10.87;;;6.77;;
7495;SDS011;3789;47.064;15.482;2024-03-07T06:57:02;10.47;;;7.30;;
7495;SDS011;3789;47.064;15.482;2024-03-07T06:59:30;13.60;;;7.80;;
7495;SDS011;3789;47.064;15.482;2024-03-07T07:01:58;8.97;;;6.67;;
7495;SDS011;3789;47.064;15.482;2024-03-07T07:04:25;10.53;;;6.83;;
7495;SDS011;3789;47.064;15.482;2024-03-07T07:06:58;11.33;;;7.43;;
7495;SDS011;3789;47.064;15.482;2024-03-07T07:09:27;15.47;;;7.53;;
7495;SDS011;3789;47.064;15.482;2024-03-07T07:11:54;11.73;;;7.60;;
7495;SDS011;3789;47.064;15.482;2024-03-07T07:14:22;16.80;;;7.97;;
7495;SDS011;3789;47.064;15.482;2024-03-07T07:16:50;12.23;;;7.70;;
7495;SDS011;3789;47.064;15.482;2024-03-07T07:19:17;13.47;;;8.43;;
7495;SDS011;3789;47.064;15.482;2024-03-07T07:21:44;14.73;;;8.13;;
7495;SDS011;3789;47.064;15.482;2024-03-07T07:24:13;10.20;;;7.17;;
7495;SDS011;3789;47.064;15.482;2024-03-07T07:26:41;17.33;;;7.03;;
7495;SDS011;3789;47.064;15.482;2024-03-07T07:29:08;13.53;;;7.83;;
7495;SDS011;3789;47.064;15.482;2024-03-07T07:31:37;14.97;;;8.33;;
7495;SDS011;3789;47.064;15.482;2024-03-07T07:34:04;10.57;;;8.00;;
7495;SDS011;3789;47.064;15.482;2024-03-07T07:36:33;11.07;;;7.87;;
7495;SDS011;3789;47.064;15.482;2024-03-07T07:39:00;11.37;;;7.30;;
7495;SDS011;3789;47.064;15.482;2024-03-07T07:41:29;15.37;;;8.13;;
7495;SDS011;3789;47.064;15.482;2024-03-07T07:43:58;13.13;;;8.00;;
7495;SDS011;3789;47.064;15.482;2024-03-07T07:46:25;12.37;;;7.70;;
7495;SDS011;3789;47.064;15.482;2024-03-07T07:48:52;13.87;;;9.80;;
7495;SDS011;3789;47.064;15.482;2024-03-07T07:51:20;14.23;;;10.37;;
7495;SDS011;3789;47.064;15.482;2024-03-07T07:53:47;11.97;;;7.43;;
7495;SDS011;3789;47.064;15.482;2024-03-07T07:56:14;12.63;;;7.57;;
7495;SDS011;3789;47.064;15.482;2024-03-07T07:58:42;15.73;;;8.47;;
7495;SDS011;3789;47.064;15.482;2024-03-07T08:01:10;13.67;;;7.80;;
7495;SDS011;3789;47.064;15.482;2024-03-07T08:03:38;12.60;;;7.73;;
7495;SDS011;3789;47.064;15.482;2024-03-07T08:06:06;12.63;;;8.63;;
7495;SDS011;3789;47.064;15.482;2024-03-07T08:08:34;10.83;;;7.63;;
7495;SDS011;3789;47.064;15.482;2024-03-07T08:11:02;11.43;;;7.83;;
7495;SDS011;3789;47.064;15.482;2024-03-07T08:13:30;20.00;;;9.30;;
7495;SDS011;3789;47.064;15.482;2024-03-07T08:15:57;14.30;;;8.97;;
7495;SDS011;3789;47.064;15.482;2024-03-07T08:18:25;13.57;;;8.33;;
7495;SDS011;3789;47.064;15.482;2024-03-07T08:20:53;10.77;;;7.37;;
7495;SDS011;3789;47.064;15.482;2024-03-07T08:23:21;11.47;;;7.63;;
7495;SDS011;3789;47.064;15.482;2024-03-07T08:25:52;12.43;;;7.40;;
7495;SDS011;3789;47.064;15.482;2024-03-07T08:28:19;11.27;;;7.43;;
7495;SDS011;3789;47.064;15.482;2024-03-07T08:30:46;13.73;;;7.90;;
7495;SDS011;3789;47.064;15.482;2024-03-07T08:33:13;13.43;;;8.30;;
7495;SDS011;3789;47.064;15.482;2024-03-07T08:35:41;13.50;;;8.90;;
7495;SDS011;3789;47.064;15.482;2024-03-07T08:38:09;15.30;;;8.03;;
7495;SDS011;3789;47.064;15.482;2024-03-07T08:40:38;10.80;;;8.00;;
7495;SDS011;3789;47.064;15.482;2024-03-07T08:43:06;16.10;;;9.97;;
7495;SDS011;3789;47.064;15.482;2024-03-07T08:45:34;13.97;;;8.80;;
7495;SDS011;3789;47.064;15.482;2024-03-07T08:48:02;14.47;;;9.53;;
7495;SDS011;3789;47.064;15.482;2024-03-07T08:50:36;14.23;;;9.17;;
7495;SDS011;3789;47.064;15.482;2024-03-07T08:53:05;15.90;;;8.90;;
7495;SDS011;3789;47.064;15.482;2024-03-07T08:55:34;12.50;;;8.30;;
7495;SDS011;3789;47.064;15.482;2024-03-07T08:58:03;11.77;;;7.27;;
7495;SDS011;3789;47.064;15.482;2024-03-07T09:00:34;14.93;;;8.33;;
7495;SDS011;3789;47.064;15.482;2024-03-07T09:03:05;10.60;;;6.97;;
7495;SDS011;3789;47.064;15.482;2024-03-07T09:05:38;10.37;;;6.80;;
7495;SDS011;3789;47.064;15.482;2024-03-07T09:08:07;9.77;;;6.40;;
7495;SDS011;3789;47.064;15.482;2024-03-07T09:10:34;9.63;;;6.80;;
7495;SDS011;3789;47.064;15.482;2024-03-07T09:13:03;9.77;;;6.40;;
7495;SDS011;3789;47.064;15.482;2024-03-07T09:15:32;10.27;;;6.73;;
7495;SDS011;3789;47.064;15.482;2024-03-07T09:17:59;13.03;;;7.20;;
7495;SDS011;3789;47.064;15.482;2024-03-07T09:20:30;9.93;;;6.27;;
7495;SDS011;3789;47.064;15.482;2024-03-07T09:22:58;8.27;;;6.53;;
7495;SDS011;3789;47.064;15.482;2024-03-07T09:25:26;9.07;;;5.50;;
7495;SDS011;3789;47.064;15.482;2024-03-07T09:27:54;7.73;;;5.80;;
7495;SDS011;3789;47.064;15.482;2024-03-07T09:30:21;8.27;;;6.13;;
7495;SDS011;3789;47.064;15.482;2024-03-07T09:32:52;9.30;;;6.00;;
7495;SDS011;3789;47.064;15.482;2024-03-07T09:35:24;8.37;;;5.73;;
7495;SDS011;3789;47.064;15.482;2024-03-07T09:37:52;8.50;;;6.30;;
7495;SDS011;3789;47.064;15.482;2024-03-07T09:40:21;10.00;;;5.80;;
7495;SDS011;3789;47.064;15.482;2024-03-07T09:42:53;10.60;;;6.87;;
7495;SDS011;3789;47.064;15.482;2024-03-07T09:45:23;9.47;;;6.40;;
7495;SDS011;3789;47.064;15.482;2024-03-07T09:47:58;9.37;;;6.67;;
7495;SDS011;3789;47.064;15.482;2024-03-07T09:50:26;8.77;;;5.77;;
7495;SDS011;3789;47.064;15.482;2024-03-07T09:52:58;8.60;;;5.50;;
7495;SDS011;3789;47.064;15.482;2024-03-07T09:55:27;9.57;;;6.67;;
7495;SDS011;3789;47.064;15.482;2024-03-07T09:57:54;8.63;;;6.37;;
7495;SDS011;3789;47.064;15.482;2024-03-07T10:00:26;10.47;;;6.20;;
7495;SDS011;3789;47.064;15.482;2024-03-07T10:02:59;8.90;;;6.43;;
7495;SDS011;3789;47.064;15.482;2024-03-07T10:05:34;7.60;;;5.50;;
7495;SDS011;3789;47.064;15.482;2024-03-07T10:08:04;7.27;;;5.07;;
7495;SDS011;3789;47.064;15.482;2024-03-07T10:10:35;6.23;;;5.00;;
7495;SDS011;3789;47.064;15.482;2024-03-07T10:13:04;5.83;;;4.70;;
7495;SDS011;3789;47.064;15.482;2024-03-07T10:15:32;8.07;;;5.20;;
7495;SDS011;3789;47.064;15.482;2024-03-07T10:18:01;5.77;;;4.33;;
7495;SDS011;3789;47.064;15.482;2024-03-07T10:20:29;5.80;;;4.93;;
7495;SDS011;3789;47.064;15.482;2024-03-07T10:22:57;8.10;;;4.80;;
7495;SDS011;3789;47.064;15.482;2024-03-07T10:25:24;6.63;;;4.70;;
7495;SDS011;3789;47.064;15.482;2024-03-07T10:27:55;10.03;;;4.83;;
7495;SDS011;3789;47.064;15.482;2024-03-07T10:30:25;6.53;;;4.73;;
7495;SDS011;3789;47.064;15.482;2024-03-07T10:32:56;7.53;;;5.03;;
7495;SDS011;3789;47.064;15.482;2024-03-07T10:35:27;5.47;;;4.03;;
7495;SDS011;3789;47.064;15.482;2024-03-07T10:37:57;4.03;;;2.90;;
7495;SDS011;3789;47.064;15.482;2024-03-07T10:40:33;5.17;;;3.70;;
7495;SDS011;3789;47.064;15.482;2024-03-07T10:43:04;3.97;;;3.40;;
7495;SDS011;3789;47.064;15.482;2024-03-07T10:45:47;3.50;;;2.63;;
7495;SDS011;3789;47.064;15.482;2024-03-07T10:48:19;4.77;;;3.47;;
7495;SDS011;3789;47.064;15.482;2024-03-07T10:53:52;4.10;;;2.93;;
7495;SDS011;3789;47.064;15.482;2024-03-07T10:56:27;6.37;;;3.17;;
7495;SDS011;3789;47.064;15.482;2024-03-07T10:59:45;4.93;;;2.90;;
7495;SDS011;3789;47.064;15.482;2024-03-07T11:02:29;4.50;;;3.40;;
7495;SDS011;3789;47.064;15.482;2024-03-07T11:05:11;7.57;;;3.80;;
7495;SDS011;3789;47.064;15.482;2024-03-07T11:07:42;4.33;;;3.33;;
7495;SDS011;3789;47.064;15.482;2024-03-07T11:10:10;4.33;;;3.10;;
7495;SDS011;3789;47.064;15.482;2024-03-07T11:12:39;5.97;;;4.10;;
7495;SDS011;3789;47.064;15.482;2024-03-07T11:15:08;4.23;;;3.57;;
7495;SDS011;3789;47.064;15.482;2024-03-07T11:17:47;4.53;;;3.73;;
7495;SDS011;3789;47.064;15.482;2024-03-07T11:22:50;5.20;;;3.87;;
7495;SDS011;3789;47.064;15.482;2024-03-07T11:25:20;5.03;;;4.00;;
7495;SDS011;3789;47.064;15.482;2024-03-07T11:27:56;3.97;;;3.17;;
7495;SDS011;3789;47.064;15.482;2024-03-07T11:30:27;4.60;;;3.77;;
7495;SDS011;3789;47.064;15.482;2024-03-07T11:32:55;4.93;;;3.57;;
7495;SDS011;3789;47.064;15.482;2024-03-07T11:35:31;6.13;;;3.83;;
7495;SDS011;3789;47.064;15.482;2024-03-07T11:38:06;5.03;;;3.90;;
7495;SDS011;3789;47.064;15.482;2024-03-07T11:43:11;4.20;;;3.30;;
7495;SDS011;3789;47.064;15.482;2024-03-07T11:45:39;4.93;;;3.83;;
7495;SDS011;3789;47.064;15.482;2024-03-07T11:48:11;5.13;;;3.53;;
7495;SDS011;3789;47.064;15.482;2024-03-07T11:50:39;5.03;;;3.83;;
7495;SDS011;3789;47.064;15.482;2024-03-07T11:53:09;4.47;;;3.97;;
7495;SDS011;3789;47.064;15.482;2024-03-07T11:55:37;9.10;;;4.60;;
7495;SDS011;3789;47.064;15.482;2024-03-07T12:00:50;5.53;;;3.53;;
7495;SDS011;3789;47.064;15.482;2024-03-07T12:03:19;6.27;;;4.30;;
7495;SDS011;3789;47.064;15.482;2024-03-07T12:05:48;5.47;;;4.40;;
7495;SDS011;3789;47.064;15.482;2024-03-07T12:08:18;5.53;;;4.03;;
7495;SDS011;3789;47.064;15.482;2024-03-07T12:10:51;6.13;;;4.13;;
7495;SDS011;3789;47.064;15.482;2024-03-07T12:13:24;4.73;;;3.87;;
7495;SDS011;3789;47.064;15.482;2024-03-07T12:15:54;4.43;;;3.73;;
7495;SDS011;3789;47.064;15.482;2024-03-07T12:18:22;4.43;;;3.83;;
7495;SDS011;3789;47.064;15.482;2024-03-07T12:20:50;6.50;;;4.20;;
7495;SDS011;3789;47.064;15.482;2024-03-07T12:23:22;4.57;;;3.80;;
7495;SDS011;3789;47.064;15.482;2024-03-07T12:26:03;6.10;;;4.10;;
7495;SDS011;3789;47.064;15.482;2024-03-07T12:28:32;4.87;;;3.23;;
7495;SDS011;3789;47.064;15.482;2024-03-07T12:31:05;5.37;;;3.90;;
7495;SDS011;3789;47.064;15.482;2024-03-07T12:33:42;5.37;;;3.60;;
7495;SDS011;3789;47.064;15.482;2024-03-07T12:36:19;8.37;;;3.60;;
7495;SDS011;3789;47.064;15.482;2024-03-07T12:38:52;7.03;;;3.80;;
7495;SDS011;3789;47.064;15.482;2024-03-07T12:41:20;7.40;;;4.00;;
7495;SDS011;3789;47.064;15.482;2024-03-07T12:43:49;6.20;;;4.00;;
7495;SDS011;3789;47.064;15.482;2024-03-07T12:46:17;4.87;;;3.40;;
7495;SDS011;3789;47.064;15.482;2024-03-07T12:48:44;5.23;;;3.50;;
7495;SDS011;3789;47.064;15.482;2024-03-07T12:51:13;4.93;;;3.63;;
7495;SDS011;3789;47.064;15.482;2024-03-07T12:53:46;5.23;;;3.90;;
7495;SDS011;3789;47.064;15.482;2024-03-07T12:56:14;5.57;;;4.03;;
7495;SDS011;3789;47.064;15.482;2024-03-07T12:58:47;5.53;;;4.13;;
7495;SDS011;3789;47.064;15.482;2024-03-07T13:01:17;6.07;;;4.00;;
7495;SDS011;3789;47.064;15.482;2024-03-07T13:03:46;5.00;;;3.03;;
7495;SDS011;3789;47.064;15.482;2024-03-07T13:06:15;4.80;;;4.00;;
7495;SDS011;3789;47.064;15.482;2024-03-07T13:08:47;5.50;;;3.60;;
7495;SDS011;3789;47.064;15.482;2024-03-07T13:11:14;4.97;;;3.63;;
7495;SDS011;3789;47.064;15.482;2024-03-07T13:13:42;4.47;;;3.53;;
7495;SDS011;3789;47.064;15.482;2024-03-07T13:16:09;5.20;;;3.93;;
7495;SDS011;3789;47.064;15.482;2024-03-07T13:18:38;5.90;;;3.47;;
7495;SDS011;3789;47.064;15.482;2024-03-07T13:21:05;4.63;;;3.63;;
7495;SDS011;3789;47.064;15.482;2024-03-07T13:23:34;5.30;;;3.70;;
7495;SDS011;3789;47.064;15.482;2024-03-07T13:26:03;4.23;;;3.27;;
7495;SDS011;3789;47.064;15.482;2024-03-07T13:28:35;4.33;;;3.20;;
7495;SDS011;3789;47.064;15.482;2024-03-07T13:31:02;5.23;;;3.50;;
7495;SDS011;3789;47.064;15.482;2024-03-07T13:33:30;5.33;;;3.60;;
7495;SDS011;3789;47.064;15.482;2024-03-07T13:35:57;5.17;;;3.60;;
7495;SDS011;3789;47.064;15.482;2024-03-07T13:38:27;6.80;;;3.90;;
7495;SDS011;3789;47.064;15.482;2024-03-07T13:40:55;3.97;;;3.40;;
7495;SDS011;3789;47.064;15.482;2024-03-07T13:43:23;3.83;;;3.40;;
7495;SDS011;3789;47.064;15.482;2024-03-07T13:45:50;4.40;;;3.10;;
7495;SDS011;3789;47.064;15.482;2024-03-07T13:48:18;5.23;;;3.70;;
7495;SDS011;3789;47.064;15.482;2024-03-07T13:50:47;5.60;;;3.93;;
7495;SDS011;3789;47.064;15.482;2024-03-07T13:53:28;4.80;;;4.30;;
7495;SDS011;3789;47.064;15.482;2024-03-07T14:01:43;6.60;;;4.43;;
7495;SDS011;3789;47.064;15.482;2024-03-07T14:04:32;3.50;;;3.20;;
7495;SDS011;3789;47.064;15.482;2024-03-07T14:10:53;4.63;;;3.97;;
7495;SDS011;3789;47.064;15.482;2024-03-07T14:31:43;7.67;;;4.67;;
7495;SDS011;3789;47.064;15.482;2024-03-07T14:37:03;7.40;;;5.20;;
7495;SDS011;3789;47.064;15.482;2024-03-07T14:39:38;5.77;;;4.37;;
7495;SDS011;3789;47.064;15.482;2024-03-07T14:42:06;4.70;;;3.90;;
7495;SDS011;3789;47.064;15.482;2024-03-07T14:44:37;6.23;;;4.20;;
7495;SDS011;3789;47.064;15.482;2024-03-07T14:47:07;5.07;;;4.13;;
7495;SDS011;3789;47.064;15.482;2024-03-07T14:49:37;5.60;;;4.27;;
7495;SDS011;3789;47.064;15.482;2024-03-07T14:52:06;6.40;;;4.13;;
7495;SDS011;3789;47.064;15.482;2024-03-07T14:54:41;5.03;;;3.93;;
7495;SDS011;3789;47.064;15.482;2024-03-07T14:57:09;6.27;;;4.10;;
7495;SDS011;3789;47.064;15.482;2024-03-07T14:59:38;8.43;;;4.33;;
7495;SDS011;3789;47.064;15.482;2024-03-07T15:02:08;6.67;;;4.60;;
7495;SDS011;3789;47.064;15.482;2024-03-07T15:04:40;6.77;;;4.53;;
7495;SDS011;3789;47.064;15.482;2024-03-07T15:07:08;7.07;;;5.40;;
7495;SDS011;3789;47.064;15.482;2024-03-07T15:09:36;5.87;;;4.47;;
7495;SDS011;3789;47.064;15.482;2024-03-07T15:12:04;6.03;;;4.47;;
7495;SDS011;3789;47.064;15.482;2024-03-07T15:14:33;7.57;;;4.97;;
7495;SDS011;3789;47.064;15.482;2024-03-07T15:17:05;6.07;;;5.00;;
7495;SDS011;3789;47.064;15.482;2024-03-07T15:19:33;7.47;;;5.43;;
7495;SDS011;3789;47.064;15.482;2024-03-07T15:22:01;8.43;;;5.07;;
7495;SDS011;3789;47.064;15.482;2024-03-07T15:24:32;7.20;;;5.30;;
7495;SDS011;3789;47.064;15.482;2024-03-07T15:27:03;8.27;;;4.93;;
7495;SDS011;3789;47.064;15.482;2024-03-07T15:29:33;6.33;;;4.63;;
7495;SDS011;3789;47.064;15.482;2024-03-07T15:32:00;5.30;;;4.10;;
7495;SDS011;3789;47.064;15.482;2024-03-07T15:34:29;11.27;;;7.10;;
7495;SDS011;3789;47.064;15.482;2024-03-07T15:37:03;10.93;;;7.70;;
7495;SDS011;3789;47.064;15.482;2024-03-07T15:39:31;9.07;;;6.43;;
7495;SDS011;3789;47.064;15.482;2024-03-07T15:42:05;8.73;;;5.97;;
7495;SDS011;3789;47.064;15.482;2024-03-07T15:44:36;12.20;;;7.40;;
7495;SDS011;3789;47.064;15.482;2024-03-07T15:47:03;7.70;;;5.60;;
7495;SDS011;3789;47.064;15.482;2024-03-07T15:49:33;9.60;;;5.57;;